Time;durP1;ratioP1;P1;durP2;ratioP2;P2;SDS_P1;SDS_P2;PMS_P1;PMS_P2;Temp;Humidity;BMP_temperature;BMP_pressure;BME280_temperature;BME280_humidity;BME280_pressure;Samples;Min_cycle;Max_cycle;Signal;HPM_P1;HPM_P2
2021/09/26 00:00:46;;;;;;;10.70;9.27;;;16.50;99.90;;;;;;4992912;28;20061;-72
2021/09/26 00:03:11;;;;;;;14.73;9.05;;;16.60;99.90;;;;;;4991850;28;20026;-73
2021/09/26 00:05:37;;;;;;;14.07;9.73;;;16.60;99.90;;;;;;4992582;28;20479;-72
2021/09/26 00:08:03;;;;;;;12.35;9.55;;;16.50;99.90;;;;;;4993046;28;20037;-72
2021/09/26 00:10:29;;;;;;;12.27;9.10;;;16.60;99.90;;;;;;4992727;28;20366;-72
2021/09/26 00:12:54;;;;;;;13.70;9.55;;;16.70;99.90;;;;;;4992960;28;20034;-71
2021/09/26 00:15:21;;;;;;;18.58;10.43;;;16.60;99.90;;;;;;4992130;28;20026;-72
2021/09/26 00:17:48;;;;;;;16.70;10.82;;;16.60;99.90;;;;;;4993168;28;20072;-70
2021/09/26 00:20:15;;;;;;;10.05;8.30;;;16.60;99.90;;;;;;4992913;28;20029;-71
2021/09/26 00:22:41;;;;;;;15.20;10.25;;;16.50;99.90;;;;;;4993203;28;20027;-71
2021/09/26 00:25:07;;;;;;;11.93;9.98;;;16.50;99.90;;;;;;4990973;28;20027;-71
2021/09/26 00:27:33;;;;;;;11.63;10.00;;;16.60;99.90;;;;;;4993028;28;20037;-70
2021/09/26 00:29:59;;;;;;;11.73;9.20;;;16.40;99.90;;;;;;4992407;28;20039;-71
2021/09/26 00:32:25;;;;;;;9.65;8.65;;;16.30;99.90;;;;;;4992725;28;20029;-71
2021/09/26 00:34:50;;;;;;;11.35;9.77;;;16.30;99.90;;;;;;4992167;28;20399;-72
2021/09/26 00:37:16;;;;;;;11.73;9.43;;;16.30;99.90;;;;;;4992672;28;20527;-70
2021/09/26 00:39:42;;;;;;;11.20;9.35;;;16.30;99.90;;;;;;4992637;28;20554;-71
2021/09/26 00:42:08;;;;;;;9.85;8.85;;;16.30;99.90;;;;;;4992947;28;20109;-72
2021/09/26 00:44:33;;;;;;;15.98;10.20;;;16.30;99.90;;;;;;4991920;28;20058;-71
2021/09/26 00:46:59;;;;;;;12.98;9.77;;;16.50;99.90;;;;;;4991456;28;20060;-71
2021/09/26 00:49:25;;;;;;;17.75;10.07;;;16.50;99.90;;;;;;4991765;28;20030;-71
2021/09/26 00:51:51;;;;;;;10.93;9.80;;;16.50;99.90;;;;;;4992573;28;20034;-72
2021/09/26 00:54:18;;;;;;;13.52;10.73;;;16.40;99.90;;;;;;4991566;28;20117;-71
2021/09/26 00:56:48;;;;;;;13.25;10.57;;;16.60;99.90;;;;;;4992387;28;20057;-71
2021/09/26 00:59:18;;;;;;;11.55;10.27;;;16.50;99.90;;;;;;4991522;28;20019;-71
2021/09/26 01:01:44;;;;;;;11.05;9.93;;;16.40;99.90;;;;;;4992290;28;20113;-70
2021/09/26 01:04:10;;;;;;;14.00;10.60;;;16.30;99.90;;;;;;4992300;28;20026;-71
2021/09/26 01:06:54;;;;;;;12.57;9.70;;;16.30;99.90;;;;;;4991220;28;20172;-72
2021/09/26 01:09:59;;;;;;;14.15;11.07;;;16.30;99.90;;;;;;4992206;28;20026;-71
2021/09/26 01:12:49;;;;;;;16.75;11.15;;;16.30;99.90;;;;;;4991838;28;20386;-71
2021/09/26 01:15:26;;;;;;;13.52;11.50;;;16.30;99.90;;;;;;4991217;28;20027;-71
2021/09/26 01:18:13;;;;;;;17.05;13.32;;;16.10;99.90;;;;;;4992323;28;20018;-71
2021/09/26 01:21:06;;;;;;;14.25;11.98;;;16.20;99.90;;;;;;4992950;28;20033;-71
2021/09/26 01:23:52;;;;;;;13.52;12.00;;;16.10;99.90;;;;;;4991019;28;20038;-70
2021/09/26 01:26:47;;;;;;;14.77;11.95;;;16.00;99.90;;;;;;4995746;28;20050;-71
2021/09/26 01:30:02;;;;;;;15.05;12.35;;;15.80;99.90;;;;;;4995271;28;20582;-71
2021/09/26 01:32:30;;;;;;;14.05;12.55;;;15.80;99.90;;;;;;4994013;28;20038;-72
2021/09/26 01:34:58;;;;;;;14.70;13.05;;;15.80;99.90;;;;;;4994103;28;20023;-72
2021/09/26 01:37:45;;;;;;;18.02;13.63;;;15.80;99.90;;;;;;4995681;28;20042;-71
2021/09/26 01:40:24;;;;;;;17.48;14.70;;;15.70;99.90;;;;;;4995636;28;20030;-71
2021/09/26 01:42:54;;;;;;;22.73;14.65;;;15.70;99.90;;;;;;4996365;28;20069;-71
2021/09/26 01:45:34;;;;;;;15.20;13.18;;;15.60;99.90;;;;;;4995447;28;20086;-72
2021/09/26 01:48:06;;;;;;;21.10;16.08;;;15.50;99.90;;;;;;4996548;28;20022;-72
2021/09/26 01:50:33;;;;;;;20.27;17.40;;;15.50;99.90;;;;;;4997742;28;20404;-74
2021/09/26 01:53:01;;;;;;;19.45;15.77;;;15.50;99.90;;;;;;5016309;28;20017;-72
2021/09/26 01:55:28;;;;;;;23.60;17.27;;;15.50;99.90;;;;;;4995474;28;20492;-71
2021/09/26 01:57:58;;;;;;;22.00;15.63;;;15.50;99.90;;;;;;4994772;28;20073;-71
2021/09/26 02:00:24;;;;;;;19.45;16.05;;;15.50;99.90;;;;;;4995186;28;20469;-71
2021/09/26 02:02:50;;;;;;;21.08;16.63;;;15.40;99.90;;;;;;4994920;28;20041;-72
2021/09/26 02:05:18;;;;;;;21.55;15.73;;;15.40;99.90;;;;;;4994804;28;20022;-71
2021/09/26 02:07:47;;;;;;;17.98;16.08;;;15.40;99.90;;;;;;4995737;28;20077;-72
2021/09/26 02:10:18;;;;;;;19.38;16.30;;;15.40;99.90;;;;;;4995273;28;20022;-72
2021/09/26 02:12:44;;;;;;;19.50;15.73;;;15.30;99.90;;;;;;4995347;28;20045;-72
2021/09/26 02:15:17;;;;;;;20.45;15.57;;;15.30;99.90;;;;;;4994496;28;20030;-72
2021/09/26 02:17:44;;;;;;;18.85;15.45;;;15.30;99.90;;;;;;4995121;28;20041;-71
2021/09/26 02:20:11;;;;;;;20.88;15.50;;;15.30;99.90;;;;;;4995171;28;20023;-72
2021/09/26 02:22:38;;;;;;;24.52;16.02;;;15.30;99.90;;;;;;4995254;28;20015;-71
2021/09/26 02:25:07;;;;;;;18.92;15.85;;;15.40;99.90;;;;;;4994554;28;20117;-71
2021/09/26 02:27:34;;;;;;;19.58;16.23;;;15.40;99.90;;;;;;4993822;28;20053;-71
2021/09/26 02:30:00;;;;;;;20.95;15.23;;;15.40;99.90;;;;;;4994463;28;20038;-71
2021/09/26 02:32:26;;;;;;;14.63;11.98;;;15.30;99.90;;;;;;4994161;28;20022;-71
2021/09/26 02:34:52;;;;;;;16.35;13.27;;;15.20;99.90;;;;;;4994382;28;20037;-72
2021/09/26 02:37:18;;;;;;;16.40;13.40;;;15.20;99.90;;;;;;4995327;28;20389;-72
2021/09/26 02:39:45;;;;;;;17.60;12.95;;;15.20;99.90;;;;;;4994685;28;20022;-72
2021/09/26 02:42:38;;;;;;;18.52;13.50;;;15.30;99.90;;;;;;4994901;28;20032;-72
2021/09/26 02:45:19;;;;;;;16.35;13.90;;;15.20;99.90;;;;;;4994016;28;20037;-73
2021/09/26 02:48:13;;;;;;;16.42;12.80;;;15.10;99.90;;;;;;4994967;28;20384;-71
2021/09/26 02:50:41;;;;;;;13.82;12.00;;;15.10;99.90;;;;;;4994606;28;20046;-72
2021/09/26 02:53:07;;;;;;;17.20;13.18;;;15.00;99.90;;;;;;4993091;28;20022;-73
2021/09/26 02:55:35;;;;;;;13.32;11.93;;;15.20;99.90;;;;;;4993872;28;20106;-71
2021/09/26 02:58:01;;;;;;;14.57;11.90;;;15.00;99.90;;;;;;4994695;28;20030;-72
2021/09/26 03:00:35;;;;;;;20.23;13.07;;;15.00;99.90;;;;;;4994080;28;20026;-72
2021/09/26 03:03:15;;;;;;;15.73;12.88;;;15.10;99.90;;;;;;4975004;28;20023;-71
2021/09/26 03:05:43;;;;;;;15.68;13.90;;;15.00;99.90;;;;;;4974277;28;20143;-72
2021/09/26 03:08:09;;;;;;;16.17;13.80;;;15.00;99.90;;;;;;4973622;28;20106;-71
2021/09/26 03:10:36;;;;;;;13.50;12.10;;;15.00;99.90;;;;;;4974691;28;20026;-72
2021/09/26 03:13:02;;;;;;;16.83;13.35;;;14.90;99.90;;;;;;4974635;28;20491;-72
2021/09/26 03:15:28;;;;;;;17.52;13.93;;;14.80;99.90;;;;;;4972861;28;20504;-71
2021/09/26 03:17:54;;;;;;;16.02;13.15;;;14.90;99.90;;;;;;4973738;28;20027;-72
2021/09/26 03:20:20;;;;;;;18.52;14.43;;;14.90;99.90;;;;;;4974245;28;20102;-71
2021/09/26 03:22:47;;;;;;;22.60;13.93;;;14.90;99.90;;;;;;4974428;28;20110;-71
2021/09/26 03:25:13;;;;;;;16.20;14.15;;;14.80;99.90;;;;;;4973991;28;20030;-71
2021/09/26 03:27:39;;;;;;;23.33;15.82;;;14.80;99.90;;;;;;4974574;28;20041;-71
2021/09/26 03:30:05;;;;;;;18.80;14.60;;;14.80;99.90;;;;;;4973893;28;20038;-70
2021/09/26 03:32:31;;;;;;;18.52;15.18;;;14.70;99.90;;;;;;4989104;28;20026;-71
2021/09/26 03:34:56;;;;;;;18.08;14.68;;;14.80;99.90;;;;;;4992879;28;20560;-71
2021/09/26 03:37:22;;;;;;;18.35;15.13;;;14.70;99.90;;;;;;4992607;28;20018;-72
2021/09/26 03:39:48;;;;;;;20.92;14.88;;;14.70;99.90;;;;;;4993555;28;20026;-72
2021/09/26 03:42:13;;;;;;;22.58;16.58;;;14.70;99.90;;;;;;4993612;28;20033;-73
2021/09/26 03:44:39;;;;;;;19.23;16.48;;;14.70;99.90;;;;;;4991714;28;20033;-71
2021/09/26 03:47:05;;;;;;;20.65;15.23;;;14.60;99.90;;;;;;4993532;28;20110;-71
2021/09/26 03:49:31;;;;;;;17.05;14.60;;;14.50;99.90;;;;;;4993154;28;20046;-71
2021/09/26 03:51:57;;;;;;;16.48;14.48;;;14.40;99.90;;;;;;4993496;28;20022;-72
2021/09/26 03:54:22;;;;;;;16.00;13.40;;;14.40;99.90;;;;;;4992936;28;20065;-72
2021/09/26 03:56:48;;;;;;;18.25;13.50;;;14.40;99.90;;;;;;4993219;28;20033;-72
2021/09/26 03:59:15;;;;;;;15.20;13.07;;;14.40;99.90;;;;;;4993216;28;20023;-72
2021/09/26 04:01:41;;;;;;;18.10;14.50;;;14.40;99.90;;;;;;4993037;28;20022;-72
2021/09/26 04:04:07;;;;;;;18.73;15.73;;;14.40;99.90;;;;;;4991955;28;20026;-72
2021/09/26 04:06:33;;;;;;;16.92;14.23;;;14.40;99.90;;;;;;4992661;28;20065;-72
2021/09/26 04:08:59;;;;;;;15.88;13.82;;;14.50;99.90;;;;;;4992942;28;20061;-72
2021/09/26 04:11:25;;;;;;;18.65;14.38;;;14.40;99.90;;;;;;4993312;28;20089;-72
2021/09/26 04:13:51;;;;;;;18.42;15.32;;;14.40;99.90;;;;;;4993101;28;20026;-72
2021/09/26 04:16:16;;;;;;;18.30;15.73;;;14.30;99.90;;;;;;4992237;28;20023;-73
2021/09/26 04:18:42;;;;;;;18.73;15.07;;;14.20;99.90;;;;;;4992860;28;20038;-71
2021/09/26 04:21:09;;;;;;;18.80;15.82;;;14.20;99.90;;;;;;4991980;28;20473;-71
2021/09/26 04:23:35;;;;;;;19.85;15.43;;;14.20;99.90;;;;;;4993189;28;20039;-71
2021/09/26 04:26:01;;;;;;;21.67;15.32;;;14.20;99.90;;;;;;4991121;28;20049;-72
2021/09/26 04:28:26;;;;;;;18.52;15.18;;;14.20;99.90;;;;;;4991695;28;20062;-72
2021/09/26 04:30:52;;;;;;;18.77;15.60;;;14.20;99.90;;;;;;5014771;22;20096;-73
2021/09/26 04:33:18;;;;;;;18.20;14.50;;;14.10;99.90;;;;;;4992854;28;20038;-73
2021/09/26 04:35:43;;;;;;;21.95;15.98;;;14.00;99.90;;;;;;4992164;28;20109;-72
2021/09/26 04:38:09;;;;;;;23.52;16.02;;;14.00;99.90;;;;;;4992627;28;20069;-72
2021/09/26 04:40:37;;;;;;;19.77;15.98;;;14.00;99.90;;;;;;4992516;28;20018;-73
2021/09/26 04:43:02;;;;;;;20.30;15.68;;;14.00;99.90;;;;;;4992543;28;20057;-73
2021/09/26 04:45:28;;;;;;;21.60;16.25;;;13.90;99.90;;;;;;4991705;28;20077;-73
2021/09/26 04:47:54;;;;;;;18.55;14.60;;;13.90;99.90;;;;;;4985085;28;20022;-75
2021/09/26 04:50:20;;;;;;;21.92;16.80;;;13.90;99.90;;;;;;4987906;28;20072;-75
2021/09/26 04:52:45;;;;;;;20.67;15.63;;;13.80;99.90;;;;;;4991541;28;20018;-76
2021/09/26 04:55:11;;;;;;;20.02;15.88;;;13.80;99.90;;;;;;4990826;28;20520;-76
2021/09/26 04:57:37;;;;;;;18.10;15.70;;;13.80;99.90;;;;;;4992553;28;20398;-77
2021/09/26 05:00:06;;;;;;;22.10;16.63;;;13.80;99.90;;;;;;4991007;28;20446;-76
2021/09/26 05:02:31;;;;;;;22.00;16.40;;;13.80;99.90;;;;;;4991646;28;20218;-75
2021/09/26 05:04:57;;;;;;;21.55;16.02;;;13.70;99.90;;;;;;4991244;28;20563;-75
2021/09/26 05:07:22;;;;;;;19.40;16.08;;;13.80;99.90;;;;;;4992399;28;20022;-74
2021/09/26 05:09:48;;;;;;;22.02;16.65;;;13.80;99.90;;;;;;4990447;28;20029;-74
2021/09/26 05:12:14;;;;;;;25.27;17.42;;;13.80;99.90;;;;;;4992304;28;20026;-76
2021/09/26 05:14:40;;;;;;;22.08;15.60;;;13.80;99.90;;;;;;4989817;28;20034;-75
2021/09/26 05:17:08;;;;;;;24.98;16.38;;;13.60;99.90;;;;;;4992327;28;20065;-77
2021/09/26 05:19:34;;;;;;;22.05;17.08;;;13.70;99.90;;;;;;4990849;28;20114;-76
2021/09/26 05:22:00;;;;;;;24.17;17.10;;;13.70;99.90;;;;;;4992013;28;20094;-76
2021/09/26 05:24:26;;;;;;;21.23;17.50;;;13.70;99.90;;;;;;4991888;28;20560;-77
2021/09/26 05:26:52;;;;;;;25.45;16.80;;;13.70;99.90;;;;;;4992035;28;20030;-76
2021/09/26 05:29:17;;;;;;;20.75;17.08;;;13.70;99.90;;;;;;4989864;28;20113;-74
2021/09/26 05:31:43;;;;;;;22.17;15.15;;;13.70;99.90;;;;;;4991981;28;20030;-75
2021/09/26 05:34:09;;;;;;;19.65;15.60;;;13.60;99.90;;;;;;4989874;28;20089;-75
2021/09/26 05:36:36;;;;;;;18.73;14.70;;;13.60;99.90;;;;;;4982221;28;20026;-74
2021/09/26 05:39:03;;;;;;;18.73;15.00;;;13.60;99.90;;;;;;4971888;28;20054;-74
2021/09/26 05:41:29;;;;;;;15.77;14.02;;;13.70;99.90;;;;;;4972109;28;20055;-74
2021/09/26 05:43:54;;;;;;;15.18;13.52;;;13.60;99.90;;;;;;4987950;28;20861;-73
2021/09/26 05:46:20;;;;;;;14.45;12.48;;;13.60;99.90;;;;;;4976241;28;20437;-75
2021/09/26 05:48:46;;;;;;;15.20;13.13;;;13.70;99.90;;;;;;4980698;28;20504;-75
2021/09/26 05:51:12;;;;;;;17.98;13.60;;;13.70;99.90;;;;;;4991661;28;20034;-75
2021/09/26 05:53:37;;;;;;;22.80;13.52;;;13.90;99.90;;;;;;4991953;28;20037;-75
2021/09/26 05:56:03;;;;;;;20.08;14.52;;;13.90;99.90;;;;;;4990915;28;20026;-74
2021/09/26 05:58:29;;;;;;;20.45;15.68;;;14.00;99.90;;;;;;4991080;28;20049;-75
2021/09/26 06:00:55;;;;;;;21.05;15.32;;;14.00;99.90;;;;;;4991211;28;20025;-76
2021/09/26 06:03:20;;;;;;;16.52;14.07;;;13.90;99.90;;;;;;4991829;28;20026;-75
2021/09/26 06:05:46;;;;;;;16.95;13.38;;;13.90;99.90;;;;;;4991023;28;20030;-75
2021/09/26 06:08:12;;;;;;;13.70;11.07;;;13.90;99.90;;;;;;4994055;28;20030;-74
2021/09/26 06:10:38;;;;;;;16.13;12.88;;;13.90;99.90;;;;;;4995029;28;20045;-75
2021/09/26 06:13:04;;;;;;;14.77;12.88;;;14.00;99.90;;;;;;5009769;28;20062;-75
2021/09/26 06:15:30;;;;;;;16.27;12.55;;;14.10;99.90;;;;;;4994521;28;20077;-74
2021/09/26 06:17:57;;;;;;;14.73;11.95;;;14.20;99.90;;;;;;4995120;28;20045;-76
2021/09/26 06:20:23;;;;;;;14.50;10.90;;;14.10;99.90;;;;;;4994237;28;20027;-74
2021/09/26 06:22:48;;;;;;;13.25;10.88;;;14.00;99.90;;;;;;4995081;28;20033;-74
2021/09/26 06:25:14;;;;;;;11.65;9.88;;;14.00;99.90;;;;;;4994463;28;20527;-74
2021/09/26 06:27:40;;;;;;;14.27;11.02;;;14.10;99.90;;;;;;4994629;28;20064;-74
2021/09/26 06:30:06;;;;;;;11.93;10.20;;;14.20;99.90;;;;;;4994465;28;20038;-73
2021/09/26 06:32:34;;;;;;;12.40;11.10;;;14.30;99.90;;;;;;4994175;28;20023;-76
2021/09/26 06:35:01;;;;;;;13.52;11.60;;;14.30;99.90;;;;;;4993711;28;20026;-73
2021/09/26 06:37:28;;;;;;;13.80;11.15;;;14.40;99.90;;;;;;4993485;28;20462;-73
2021/09/26 06:39:55;;;;;;;15.25;10.82;;;14.50;99.90;;;;;;4994170;28;20028;-74
2021/09/26 06:42:20;;;;;;;15.75;10.68;;;14.50;99.90;;;;;;4994131;28;20081;-74
2021/09/26 06:44:46;;;;;;;17.73;11.35;;;14.60;99.90;;;;;;4993961;28;20030;-75
2021/09/26 06:47:12;;;;;;;11.73;10.38;;;14.80;99.90;;;;;;4994606;28;20054;-74
2021/09/26 06:49:37;;;;;;;16.77;11.07;;;14.90;99.90;;;;;;4994262;28;20435;-75
2021/09/26 06:52:03;;;;;;;15.00;10.82;;;15.00;99.90;;;;;;4994162;28;20476;-74
2021/09/26 06:54:29;;;;;;;18.33;11.55;;;15.20;99.90;;;;;;4994122;28;20393;-74
2021/09/26 06:56:55;;;;;;;13.98;10.30;;;15.30;99.90;;;;;;5008695;28;20037;-76
2021/09/26 06:59:20;;;;;;;11.02;9.93;;;15.40;99.90;;;;;;5013743;28;20022;-73
2021/09/26 07:01:46;;;;;;;13.70;10.15;;;15.40;99.90;;;;;;5014133;28;20022;-75
2021/09/26 07:04:12;;;;;;;11.63;10.43;;;15.50;99.90;;;;;;5014031;28;20484;-76
2021/09/26 07:06:37;;;;;;;12.60;11.07;;;15.60;99.90;;;;;;5012284;28;20030;-74
2021/09/26 07:09:03;;;;;;;14.90;9.85;;;15.80;99.90;;;;;;4996214;28;20084;-74
2021/09/26 07:11:29;;;;;;;10.10;9.10;;;16.10;99.90;;;;;;4993021;28;20057;-73
2021/09/26 07:13:55;;;;;;;12.25;9.50;;;16.30;99.90;;;;;;4992652;28;20083;-74
2021/09/26 07:16:22;;;;;;;13.18;10.18;;;16.50;99.90;;;;;;4991614;28;20022;-74
2021/09/26 07:18:49;;;;;;;10.73;9.70;;;16.50;99.90;;;;;;4992458;28;20025;-73
2021/09/26 07:21:15;;;;;;;13.13;10.48;;;16.40;99.90;;;;;;4993813;28;20377;-75
2021/09/26 07:23:43;;;;;;;16.42;12.05;;;16.30;99.90;;;;;;4994180;28;20022;-73
2021/09/26 07:26:09;;;;;;;15.70;10.93;;;16.30;99.90;;;;;;4992909;28;20102;-74
2021/09/26 07:28:34;;;;;;;14.15;10.77;;;16.50;99.90;;;;;;4993865;28;20484;-74
2021/09/26 07:31:00;;;;;;;12.20;10.35;;;16.80;99.90;;;;;;4994106;28;20233;-73
2021/09/26 07:33:26;;;;;;;11.15;10.02;;;17.30;99.90;;;;;;4991971;28;20038;-72
2021/09/26 07:35:52;;;;;;;12.32;8.85;;;17.50;99.90;;;;;;4993519;28;20050;-73
2021/09/26 07:38:18;;;;;;;9.43;8.48;;;17.70;99.90;;;;;;4993540;28;20127;-74
2021/09/26 07:40:43;;;;;;;12.63;9.07;;;17.80;99.90;;;;;;4993405;28;20049;-73
2021/09/26 07:43:09;;;;;;;13.00;8.55;;;18.00;99.90;;;;;;4993682;28;20029;-73
2021/09/26 07:45:35;;;;;;;10.77;8.90;;;18.00;99.90;;;;;;4993222;28;20481;-74
2021/09/26 07:48:01;;;;;;;9.90;8.73;;;17.90;99.90;;;;;;4993532;28;20027;-75
2021/09/26 07:50:27;;;;;;;10.57;8.73;;;17.70;99.90;;;;;;4992916;28;20022;-76
2021/09/26 07:52:54;;;;;;;11.93;8.68;;;17.60;99.90;;;;;;4993297;28;20093;-75
2021/09/26 07:55:19;;;;;;;12.38;8.90;;;17.70;99.90;;;;;;4992842;28;20057;-74
2021/09/26 07:57:46;;;;;;;13.00;8.43;;;17.70;99.90;;;;;;4993490;28;20018;-75
2021/09/26 08:00:13;;;;;;;12.20;8.70;;;17.70;99.90;;;;;;4993019;28;20480;-72
2021/09/26 08:02:40;;;;;;;10.20;8.32;;;17.90;99.90;;;;;;4992103;28;20027;-75
2021/09/26 08:05:06;;;;;;;10.27;7.47;;;17.90;99.90;;;;;;4991876;28;20036;-74
2021/09/26 08:07:33;;;;;;;8.90;8.00;;;18.10;99.90;;;;;;4993044;28;20097;-74
2021/09/26 08:09:59;;;;;;;11.90;8.65;;;18.20;99.90;;;;;;4992883;28;20038;-75
2021/09/26 08:12:24;;;;;;;10.80;8.13;;;18.30;99.90;;;;;;4992601;28;20034;-74
2021/09/26 08:14:50;;;;;;;10.82;8.43;;;18.30;99.90;;;;;;4992601;28;20037;-74
2021/09/26 08:17:17;;;;;;;12.48;7.55;;;18.60;99.90;;;;;;4992961;28;20042;-74
2021/09/26 08:19:43;;;;;;;8.80;7.93;;;18.60;99.90;;;;;;4992767;28;20100;-74
2021/09/26 08:22:09;;;;;;;12.65;9.05;;;18.50;99.90;;;;;;4993031;28;20018;-73
2021/09/26 08:24:36;;;;;;;14.30;8.45;;;18.60;99.90;;;;;;4992362;28;20027;-74
2021/09/26 08:27:03;;;;;;;12.18;9.05;;;18.70;99.90;;;;;;4991942;28;20030;-74
2021/09/26 08:29:29;;;;;;;10.93;8.20;;;18.60;99.90;;;;;;4992848;28;20093;-74
2021/09/26 08:31:54;;;;;;;9.38;8.25;;;18.60;99.90;;;;;;4992839;28;20026;-72
2021/09/26 08:34:21;;;;;;;11.90;8.40;;;18.70;99.90;;;;;;4991850;28;20105;-73
2021/09/26 08:36:47;;;;;;;9.75;7.60;;;18.70;99.90;;;;;;4992375;28;20029;-74
2021/09/26 08:39:13;;;;;;;10.32;8.38;;;18.90;99.90;;;;;;4992352;28;20113;-75
2021/09/26 08:41:39;;;;;;;15.30;8.48;;;19.00;99.90;;;;;;4992771;28;20532;-74
2021/09/26 08:44:05;;;;;;;12.55;8.25;;;18.90;99.90;;;;;;4991996;28;20112;-74
2021/09/26 08:46:32;;;;;;;9.88;7.68;;;18.90;99.90;;;;;;4992031;28;20026;-74
2021/09/26 08:48:58;;;;;;;12.05;8.48;;;18.80;99.90;;;;;;4991721;28;20037;-73
2021/09/26 08:51:24;;;;;;;16.88;9.73;;;18.80;99.90;;;;;;4990821;28;20041;-75
2021/09/26 08:53:51;;;;;;;15.10;9.90;;;18.90;99.90;;;;;;4991933;28;20030;-75
2021/09/26 08:56:18;;;;;;;17.23;9.88;;;19.00;99.90;;;;;;4991419;28;20033;-75
2021/09/26 08:58:44;;;;;;;14.43;8.93;;;18.90;99.90;;;;;;4992159;28;20023;-75
2021/09/26 09:01:10;;;;;;;13.73;9.55;;;18.70;99.90;;;;;;4992186;28;20055;-75
2021/09/26 09:03:37;;;;;;;15.20;9.88;;;18.70;99.90;;;;;;4992019;28;20026;-76
2021/09/26 09:06:02;;;;;;;14.75;10.18;;;18.80;99.90;;;;;;4990083;28;20509;-75
2021/09/26 09:08:28;;;;;;;14.82;11.43;;;18.90;99.90;;;;;;4992144;28;20037;-73
2021/09/26 09:10:57;;;;;;;13.18;11.77;;;19.10;99.90;;;;;;4991912;28;20485;-74
2021/09/26 09:13:31;;;;;;;14.55;11.60;;;19.00;99.90;;;;;;4992004;28;20481;-76
2021/09/26 09:16:03;;;;;;;16.63;12.25;;;18.90;99.90;;;;;;4991458;28;20020;-75
2021/09/26 09:18:50;;;;;;;16.77;12.20;;;18.90;99.90;;;;;;4991724;28;20026;-80
2021/09/26 09:21:27;;;;;;;15.30;13.23;;;18.80;99.90;;;;;;4991849;28;20072;-75
2021/09/26 09:24:11;;;;;;;15.38;13.25;;;18.90;99.90;;;;;;4990398;28;20023;-75
2021/09/26 09:26:38;;;;;;;14.15;12.30;;;18.90;99.90;;;;;;4991290;28;20084;-76
2021/09/26 09:29:05;;;;;;;16.50;13.57;;;18.90;99.90;;;;;;4991502;28;20062;-76
2021/09/26 09:31:32;;;;;;;15.27;12.93;;;19.00;99.90;;;;;;4992205;28;20081;-76
2021/09/26 09:33:58;;;;;;;15.60;13.20;;;19.00;99.90;;;;;;4991052;28;20038;-76
2021/09/26 09:36:29;;;;;;;14.90;12.90;;;19.00;99.90;;;;;;4989863;28;20023;-73
2021/09/26 09:38:57;;;;;;;21.65;14.88;;;19.10;99.90;;;;;;4991732;28;20058;-74
2021/09/26 09:41:32;;;;;;;16.15;14.23;;;19.30;99.90;;;;;;4991811;28;20027;-73
2021/09/26 09:43:58;;;;;;;17.40;13.55;;;19.30;99.90;;;;;;4995438;28;20085;-73
2021/09/26 09:46:49;;;;;;;14.63;12.25;;;19.30;99.90;;;;;;4995264;28;20648;-76
2021/09/26 09:49:21;;;;;;;15.93;12.47;;;19.30;99.90;;;;;;4993759;28;20519;-75
2021/09/26 09:51:56;;;;;;;13.05;11.80;;;19.30;99.90;;;;;;4995390;28;20026;-74
2021/09/26 09:54:39;;;;;;;14.88;12.93;;;19.40;99.90;;;;;;4993557;28;20030;-75
2021/09/26 09:57:16;;;;;;;14.90;13.07;;;19.60;99.90;;;;;;4995142;28;20524;-75
2021/09/26 09:59:44;;;;;;;13.88;12.27;;;19.60;99.90;;;;;;4995389;28;20022;-75
2021/09/26 10:02:11;;;;;;;16.25;13.32;;;19.40;99.90;;;;;;4993965;28;20050;-74
2021/09/26 10:04:38;;;;;;;17.48;14.05;;;19.50;99.90;;;;;;4993975;28;20048;-76
2021/09/26 10:07:20;;;;;;;14.45;13.05;;;19.60;99.90;;;;;;4995023;28;20050;-74
2021/09/26 10:09:46;;;;;;;16.25;13.15;;;19.80;99.90;;;;;;4995054;28;20056;-73
2021/09/26 10:12:27;;;;;;;32.75;12.80;;;19.80;99.90;;;;;;4995161;28;20034;-74
2021/09/26 10:14:58;;;;;;;15.50;12.40;;;19.90;99.90;;;;;;4993855;28;20041;-75
2021/09/26 10:17:25;;;;;;;16.38;12.70;;;19.70;99.90;;;;;;4994984;28;20132;-74
2021/09/26 10:19:52;;;;;;;16.42;12.05;;;19.50;99.90;;;;;;4994400;28;20022;-74
2021/09/26 10:22:18;;;;;;;16.50;12.15;;;19.70;99.90;;;;;;4994973;28;20388;-75
2021/09/26 10:24:47;;;;;;;15.10;11.80;;;20.10;99.90;;;;;;4993796;28;20034;-74
2021/09/26 10:27:18;;;;;;;15.13;11.45;;;20.50;99.90;;;;;;4994517;28;20076;-74
2021/09/26 10:29:45;;;;;;;14.68;11.75;;;20.20;99.90;;;;;;4993653;28;20113;-74
2021/09/26 10:32:11;;;;;;;11.98;10.73;;;20.00;99.90;;;;;;4994820;28;20117;-74
2021/09/26 10:34:37;;;;;;;13.00;11.60;;;19.90;99.90;;;;;;5025474;22;20047;-79
2021/09/26 10:37:12;;;;;;;15.35;11.88;;;20.00;99.90;;;;;;4965752;28;20023;-80
2021/09/26 10:39:40;;;;;;;12.43;11.13;;;19.90;99.90;;;;;;4960090;28;20482;-78
2021/09/26 10:42:17;;;;;;;12.80;11.40;;;19.90;99.90;;;;;;4963393;28;20377;-79
2021/09/26 10:44:46;;;;;;;13.60;11.55;;;19.90;99.90;;;;;;4958795;28;20521;-79
2021/09/26 10:47:16;;;;;;;13.52;12.23;;;19.80;99.90;;;;;;4960339;28;20035;-78
2021/09/26 10:49:49;;;;;;;13.98;12.55;;;19.80;99.90;;;;;;4958778;28;20154;-79
2021/09/26 10:52:24;;;;;;;15.70;13.05;;;19.70;99.90;;;;;;4960919;28;20038;-80
2021/09/26 10:54:50;;;;;;;12.02;10.93;;;19.80;99.90;;;;;;4958847;28;20170;-79
2021/09/26 10:57:19;;;;;;;19.42;11.63;;;19.80;99.90;;;;;;4959721;28;20023;-79
2021/09/26 10:59:53;;;;;;;13.90;12.00;;;19.50;99.90;;;;;;4959917;28;20019;-79
2021/09/26 11:02:22;;;;;;;12.60;11.25;;;19.80;99.90;;;;;;4981657;28;20030;-79
2021/09/26 11:04:51;;;;;;;11.43;10.13;;;19.70;99.90;;;;;;4986020;28;20038;-79
2021/09/26 11:07:19;;;;;;;11.13;10.05;;;19.80;99.90;;;;;;4977343;28;20050;-78
2021/09/26 11:09:54;;;;;;;11.43;10.23;;;19.80;99.90;;;;;;4978578;28;20027;-78
2021/09/26 11:12:43;;;;;;;10.77;9.73;;;20.10;99.90;;;;;;4980439;28;20354;-80
2021/09/26 11:15:23;;;;;;;9.70;8.70;;;20.30;99.90;;;;;;4976922;28;20034;-78
2021/09/26 11:17:57;;;;;;;10.35;9.35;;;20.40;99.90;;;;;;4976094;28;20027;-78
2021/09/26 11:20:26;;;;;;;9.13;8.00;;;21.00;99.90;;;;;;4974202;28;20058;-78
2021/09/26 11:23:07;;;;;;;8.82;7.93;;;21.30;99.90;;;;;;4975589;28;20029;-79
2021/09/26 11:26:00;;;;;;;7.90;7.20;;;21.10;99.90;;;;;;4973789;28;20023;-77
2021/09/26 11:28:28;;;;;;;7.43;6.72;;;21.40;99.90;;;;;;4975429;28;20023;-77
2021/09/26 11:30:54;;;;;;;8.48;7.78;;;21.50;99.90;;;;;;4975010;28;20031;-79
2021/09/26 11:33:20;;;;;;;8.70;7.55;;;21.60;99.90;;;;;;4994889;28;20392;-77
2021/09/26 11:35:45;;;;;;;8.85;8.15;;;21.50;99.90;;;;;;4993811;28;20026;-77
2021/09/26 11:38:19;;;;;;;8.50;7.70;;;21.50;99.90;;;;;;4994605;28;20488;-77
2021/09/26 11:41:06;;;;;;;8.23;7.43;;;21.50;99.90;;;;;;4982572;28;20038;-78
2021/09/26 11:43:35;;;;;;;9.02;7.78;;;21.60;99.90;;;;;;4975065;28;20027;-78
2021/09/26 11:46:18;;;;;;;9.07;8.13;;;21.60;99.90;;;;;;4976628;28;20030;-77
2021/09/26 11:48:43;;;;;;;7.72;6.80;;;21.70;99.90;;;;;;4976625;28;20031;-78
2021/09/26 11:51:12;;;;;;;8.48;7.65;;;22.20;99.90;;;;;;4979571;28;20027;-78
2021/09/26 11:53:39;;;;;;;8.55;7.50;;;22.80;99.90;;;;;;4980763;28;20066;-83
2021/09/26 11:56:35;;;;;;;7.47;6.78;;;24.40;99.90;;;;;;4975506;28;20041;-82
2021/09/26 11:59:05;;;;;;;8.95;6.50;;;25.00;99.90;;;;;;4963306;28;20042;-81
2021/09/26 12:01:33;;;;;;;5.80;5.40;;;25.00;99.90;;;;;;4979153;28;20022;-82
2021/09/26 12:04:11;;;;;;;6.10;5.60;;;24.90;99.90;;;;;;4996194;28;20384;-83
2021/09/26 12:06:39;;;;;;;6.20;5.60;;;24.90;99.90;;;;;;4993873;28;20484;-81
2021/09/26 12:09:05;;;;;;;5.63;5.22;;;25.00;99.90;;;;;;4994589;28;20361;-83
2021/09/26 12:11:31;;;;;;;5.20;4.80;;;25.30;99.90;;;;;;4994593;28;20022;-82
2021/09/26 12:13:58;;;;;;;4.90;4.50;;;26.20;99.90;;;;;;4994857;28;20072;-82
2021/09/26 12:16:25;;;;;;;4.85;4.35;;;27.90;99.90;;;;;;4993616;28;20034;-83
2021/09/26 12:18:50;;;;;;;4.32;3.85;;;27.90;99.90;;;;;;4994508;28;20096;-82
2021/09/26 12:21:17;;;;;;;5.63;5.03;;;26.60;99.90;;;;;;4994847;28;20030;-82
2021/09/26 12:23:45;;;;;;;5.07;4.68;;;25.20;99.90;;;;;;4981735;28;20501;-82
2021/09/26 12:26:11;;;;;;;5.63;5.15;;;25.20;99.90;;;;;;4974623;28;20376;-81
2021/09/26 12:28:40;;;;;;;6.63;5.38;;;24.80;99.90;;;;;;4975059;28;20029;-79
2021/09/26 12:31:06;;;;;;;5.30;4.82;;;24.90;99.90;;;;;;4977289;28;20023;-80
2021/09/26 12:33:44;;;;;;;5.80;5.25;;;24.60;99.90;;;;;;4994355;28;20033;-83
2021/09/26 12:36:15;;;;;;;5.45;5.05;;;23.90;99.90;;;;;;4973249;28;20042;-81
2021/09/26 12:38:41;;;;;;;;;;;23.70;99.90;;;;;;4977485;28;20038;-81